createdAt,value
2022-10-30T00:00:18.045Z,0.00
2022-10-30T00:01:18.165Z,0.00
2022-10-30T00:02:18.170Z,0.00
2022-10-30T00:03:18.211Z,0.00
2022-10-30T00:04:18.140Z,0.00
2022-10-30T00:05:18.172Z,0.00
2022-10-30T00:07:18.228Z,0.00
2022-10-30T00:08:18.259Z,0.00
2022-10-30T00:09:18.286Z,0.00
2022-10-30T00:10:18.313Z,0.00
2022-10-30T00:11:18.372Z,0.00
2022-10-30T00:12:18.372Z,0.00
2022-10-30T00:13:18.400Z,0.00
2022-10-30T00:14:18.426Z,0.00
2022-10-30T00:15:18.458Z,0.00
2022-10-30T00:16:18.520Z,0.00
2022-10-30T00:17:18.515Z,0.00
2022-10-30T00:18:18.544Z,0.00
2022-10-30T00:19:18.573Z,0.00
2022-10-30T00:20:18.601Z,0.00
2022-10-30T00:21:18.631Z,0.00
2022-10-30T00:22:18.657Z,0.00
2022-10-30T00:23:18.688Z,0.00
2022-10-30T00:24:18.715Z,0.00
2022-10-30T00:25:18.745Z,0.00
2022-10-30T00:26:18.773Z,0.00
2022-10-30T00:27:18.804Z,0.00
2022-10-30T00:28:18.830Z,0.00
2022-10-30T00:29:18.860Z,0.00
2022-10-30T00:30:18.899Z,0.00
2022-10-30T00:31:18.942Z,0.00
2022-10-30T00:32:18.964Z,0.00
2022-10-30T00:33:18.975Z,0.00
2022-10-30T00:34:19.004Z,0.00
2022-10-30T00:35:19.032Z,0.00
2022-10-30T00:36:19.059Z,0.00
2022-10-30T00:37:19.088Z,0.00
2022-10-30T00:38:19.116Z,0.00
2022-10-30T00:39:19.149Z,0.00
2022-10-30T00:40:19.175Z,0.00
2022-10-30T00:41:19.208Z,0.00
2022-10-30T00:42:19.235Z,0.00
2022-10-30T00:43:19.262Z,0.00
2022-10-30T00:44:19.291Z,0.00
2022-10-30T00:45:19.332Z,0.00
2022-10-30T00:46:19.346Z,0.00
2022-10-30T00:47:19.376Z,0.00
2022-10-30T00:48:19.426Z,0.00
2022-10-30T00:49:19.434Z,0.00
2022-10-30T00:50:19.547Z,0.00
2022-10-30T00:51:19.493Z,0.00
2022-10-30T00:52:19.518Z,0.00
2022-10-30T00:53:19.548Z,0.00
2022-10-30T00:54:19.676Z,0.00
2022-10-30T00:55:19.611Z,0.00
2022-10-30T00:56:19.636Z,0.00
2022-10-30T00:57:19.669Z,0.00
2022-10-30T00:58:19.692Z,0.00
2022-10-30T00:59:19.722Z,0.00
2022-10-30T01:00:19.750Z,0.00
2022-10-30T01:01:19.921Z,0.00
2022-10-30T01:02:19.940Z,0.00
2022-10-30T01:03:19.838Z,0.00
2022-10-30T01:04:19.882Z,0.00
2022-10-30T01:05:19.893Z,0.00
2022-10-30T01:06:19.920Z,0.00
2022-10-30T01:07:19.952Z,0.00
2022-10-30T01:08:20.016Z,0.00
2022-10-30T01:09:20.053Z,0.00
2022-10-30T01:10:20.040Z,0.00
2022-10-30T01:11:20.067Z,0.00
2022-10-30T01:12:20.093Z,0.00
2022-10-30T01:13:20.123Z,0.00
2022-10-30T01:14:20.150Z,0.00
2022-10-30T01:15:20.181Z,0.00
2022-10-30T01:16:20.207Z,0.00
2022-10-30T01:17:20.240Z,0.00
2022-10-30T01:18:20.264Z,0.00
2022-10-30T01:19:20.299Z,0.00
2022-10-30T01:20:20.343Z,0.00
2022-10-30T01:21:20.351Z,0.00
2022-10-30T01:22:20.377Z,0.00
2022-10-30T01:23:20.408Z,0.00
2022-10-30T01:24:20.435Z,0.00
2022-10-30T01:25:20.472Z,0.00
2022-10-30T01:26:20.491Z,0.00
2022-10-30T01:27:20.524Z,0.00
2022-10-30T01:28:20.550Z,0.00
2022-10-30T01:29:20.579Z,0.00
2022-10-30T01:30:20.607Z,0.00
2022-10-30T01:31:20.636Z,0.00
2022-10-30T01:32:20.664Z,0.00
2022-10-30T01:33:20.693Z,0.00
2022-10-30T01:34:20.720Z,0.00
2022-10-30T01:35:20.751Z,0.00
2022-10-30T01:36:20.797Z,0.00
2022-10-30T01:37:20.810Z,0.00
2022-10-30T01:38:20.835Z,0.00
2022-10-30T01:39:20.865Z,0.00
2022-10-30T01:40:20.892Z,0.00
2022-10-30T01:41:20.924Z,0.00
2022-10-30T01:42:20.949Z,0.00
2022-10-30T01:43:20.980Z,0.00
2022-10-30T01:44:21.005Z,0.00
2022-10-30T01:45:21.036Z,0.00
2022-10-30T01:46:21.067Z,0.00
2022-10-30T01:47:21.091Z,0.00
2022-10-30T01:48:21.118Z,0.00
2022-10-30T01:49:21.202Z,0.00
2022-10-30T01:50:21.176Z,0.00
2022-10-30T01:51:21.207Z,0.00
2022-10-30T01:52:21.253Z,0.00
2022-10-30T01:53:21.263Z,0.00
2022-10-30T01:54:21.289Z,0.00
2022-10-30T01:55:21.319Z,0.00
2022-10-30T01:56:21.349Z,0.00
2022-10-30T01:57:21.378Z,0.00
2022-10-30T01:58:21.402Z,0.00
2022-10-30T01:59:21.432Z,0.00
2022-10-30T02:00:21.460Z,0.00
2022-10-30T02:01:21.606Z,0.00
2022-10-30T02:02:21.740Z,0.00
2022-10-30T02:03:21.547Z,0.00
2022-10-30T02:04:21.574Z,0.00
2022-10-30T02:05:21.603Z,0.00
2022-10-30T02:06:21.631Z,0.00
2022-10-30T02:07:21.660Z,0.00
2022-10-30T02:08:21.704Z,0.00
2022-10-30T02:09:21.716Z,0.00
2022-10-30T02:10:21.745Z,0.00
2022-10-30T02:11:21.772Z,0.00
2022-10-30T02:12:21.800Z,0.00
2022-10-30T02:13:21.830Z,0.00
2022-10-30T02:14:21.856Z,0.00
2022-10-30T02:15:21.889Z,0.00
2022-10-30T02:16:21.913Z,0.00
2022-10-30T02:17:21.942Z,0.00
2022-10-30T02:18:21.968Z,0.00
2022-10-30T02:19:22.006Z,0.00
2022-10-30T02:20:22.026Z,0.00
2022-10-30T02:21:22.054Z,0.00
2022-10-30T02:22:22.177Z,0.00
2022-10-30T02:23:22.113Z,0.00
2022-10-30T02:24:22.156Z,0.00
2022-10-30T02:25:22.167Z,0.00
2022-10-30T02:26:22.194Z,0.00
2022-10-30T02:27:22.224Z,0.00
2022-10-30T02:28:22.251Z,0.00
2022-10-30T02:29:22.279Z,0.00
2022-10-30T02:30:22.308Z,0.00
2022-10-30T02:31:22.337Z,0.00
2022-10-30T02:32:22.364Z,0.00
2022-10-30T02:33:22.396Z,0.00
2022-10-30T02:34:22.418Z,0.00
2022-10-30T02:35:22.448Z,0.00
2022-10-30T02:36:22.476Z,0.00
2022-10-30T02:37:22.505Z,0.00
2022-10-30T02:38:22.530Z,0.00
2022-10-30T02:39:22.562Z,0.00
2022-10-30T02:40:22.607Z,0.00
2022-10-30T02:41:22.615Z,0.00
2022-10-30T02:42:22.642Z,0.00
2022-10-30T02:43:22.672Z,0.00
2022-10-30T02:44:22.698Z,0.00
2022-10-30T02:45:22.737Z,0.00
2022-10-30T02:46:22.755Z,0.00
2022-10-30T02:47:22.785Z,0.00
2022-10-30T02:48:22.809Z,0.00
2022-10-30T02:49:22.839Z,0.00
2022-10-30T02:50:22.867Z,0.00
2022-10-30T02:51:22.894Z,0.00
2022-10-30T02:52:22.921Z,0.00
2022-10-30T02:53:22.950Z,0.00
2022-10-30T02:54:22.979Z,0.00
2022-10-30T02:55:23.005Z,0.00
2022-10-30T02:56:23.062Z,0.00
2022-10-30T02:57:23.061Z,0.00
2022-10-30T02:58:23.087Z,0.00
2022-10-30T02:59:23.116Z,0.00
2022-10-30T03:00:23.144Z,0.00
2022-10-30T03:01:23.373Z,0.00
2022-10-30T03:02:23.297Z,0.00
2022-10-30T03:03:24.255Z,0.00
2022-10-30T03:04:23.254Z,0.00
2022-10-30T03:05:23.282Z,0.00
2022-10-30T03:06:23.322Z,0.00
2022-10-30T03:07:23.341Z,0.00
2022-10-30T03:08:23.365Z,0.00
2022-10-30T03:09:23.394Z,0.00
2022-10-30T03:10:23.420Z,0.00
2022-10-30T03:11:23.448Z,0.00
2022-10-30T03:12:23.496Z,0.00
2022-10-30T03:13:23.502Z,0.00
2022-10-30T03:14:23.534Z,0.00
2022-10-30T03:15:23.558Z,0.00
2022-10-30T03:16:23.587Z,0.00
2022-10-30T03:17:23.613Z,0.00
2022-10-30T03:18:23.657Z,0.00
2022-10-30T03:19:23.667Z,0.00
2022-10-30T03:20:23.696Z,0.00
2022-10-30T03:21:23.722Z,0.00
2022-10-30T03:22:23.749Z,0.00
2022-10-30T03:23:23.780Z,0.00
2022-10-30T03:24:23.805Z,0.00
2022-10-30T03:25:24.225Z,0.00
2022-10-30T03:26:23.860Z,0.00
2022-10-30T03:27:23.888Z,0.00
2022-10-30T03:28:23.933Z,0.00
2022-10-30T03:29:23.940Z,0.00
2022-10-30T03:30:23.968Z,0.00
2022-10-30T03:31:23.995Z,0.00
2022-10-30T03:33:24.052Z,0.00
2022-10-30T03:34:24.076Z,0.00
2022-10-30T03:35:24.110Z,0.00
2022-10-30T03:36:24.134Z,0.00
2022-10-30T03:37:24.162Z,0.00
2022-10-30T03:38:24.188Z,0.00
2022-10-30T03:39:24.216Z,0.00
2022-10-30T03:40:24.245Z,0.00
2022-10-30T03:41:24.271Z,0.00
2022-10-30T03:42:24.296Z,0.00
2022-10-30T03:43:24.324Z,0.00
2022-10-30T03:44:24.373Z,0.00
2022-10-30T03:45:24.380Z,0.00
2022-10-30T03:46:24.451Z,0.00
2022-10-30T03:47:24.433Z,0.00
2022-10-30T03:48:24.463Z,0.00
2022-10-30T03:49:24.489Z,0.00
2022-10-30T03:50:24.517Z,0.00
2022-10-30T03:51:24.542Z,0.00
2022-10-30T03:52:24.573Z,0.00
2022-10-30T03:53:24.596Z,0.00
2022-10-30T03:54:24.625Z,0.00
2022-10-30T03:55:24.651Z,0.00
2022-10-30T03:56:24.681Z,0.00
2022-10-30T03:57:24.708Z,0.00
2022-10-30T03:58:24.734Z,0.00
2022-10-30T03:59:24.760Z,0.00
2022-10-30T04:00:24.809Z,0.00
2022-10-30T04:01:24.968Z,0.00
2022-10-30T04:02:24.850Z,0.00
2022-10-30T04:03:24.870Z,0.00
2022-10-30T04:04:24.898Z,0.00
2022-10-30T04:05:24.923Z,0.00
2022-10-30T04:06:24.952Z,0.00
2022-10-30T04:07:24.979Z,0.00
2022-10-30T04:08:25.009Z,0.00
2022-10-30T04:09:25.031Z,0.00
2022-10-30T04:10:25.059Z,0.00
2022-10-30T04:11:25.158Z,0.00
2022-10-30T04:12:25.115Z,0.00
2022-10-30T04:13:25.144Z,0.00
2022-10-30T04:14:25.169Z,0.00
2022-10-30T04:15:25.195Z,0.00
2022-10-30T04:16:25.243Z,0.00
2022-10-30T04:17:25.255Z,0.00
2022-10-30T04:18:25.289Z,0.00
2022-10-30T04:19:25.303Z,0.00
2022-10-30T04:20:25.332Z,0.00
2022-10-30T04:21:25.356Z,0.00
2022-10-30T04:22:25.385Z,0.00
2022-10-30T04:23:25.420Z,0.00
2022-10-30T04:24:25.440Z,0.00
2022-10-30T04:25:25.465Z,0.00
2022-10-30T04:26:25.495Z,0.00
2022-10-30T04:27:25.520Z,0.00
2022-10-30T04:28:25.546Z,0.00
2022-10-30T04:29:25.572Z,0.00
2022-10-30T04:30:25.601Z,0.00
2022-10-30T04:31:25.629Z,0.00
2022-10-30T04:32:25.682Z,0.00
2022-10-30T04:33:25.685Z,0.00
2022-10-30T04:34:25.711Z,0.00
2022-10-30T04:35:25.735Z,0.00
2022-10-30T04:36:25.765Z,0.00
2022-10-30T04:37:25.789Z,0.00
2022-10-30T04:38:25.820Z,0.00
2022-10-30T04:39:25.843Z,0.00
2022-10-30T04:40:25.873Z,0.00
2022-10-30T04:41:25.898Z,0.00
2022-10-30T04:42:25.926Z,0.00
2022-10-30T04:43:25.951Z,0.00
2022-10-30T04:44:25.992Z,0.00
2022-10-30T04:45:26.007Z,0.00
2022-10-30T04:46:26.033Z,0.00
2022-10-30T04:47:26.117Z,0.00
2022-10-30T04:48:26.107Z,0.00
2022-10-30T04:49:26.113Z,0.00
2022-10-30T04:50:26.142Z,0.00
2022-10-30T04:51:26.167Z,0.00
2022-10-30T04:52:26.197Z,0.00
2022-10-30T04:53:26.222Z,0.00
2022-10-30T04:54:26.249Z,0.00
2022-10-30T04:55:26.274Z,0.00
2022-10-30T04:56:26.303Z,0.00
2022-10-30T04:57:26.329Z,0.00
2022-10-30T04:58:26.356Z,0.00
2022-10-30T04:59:26.380Z,0.00
2022-10-30T05:00:26.410Z,0.00
2022-10-30T05:01:26.552Z,0.00
2022-10-30T05:02:26.639Z,0.00
2022-10-30T05:03:26.489Z,0.00
2022-10-30T05:04:26.536Z,0.00
2022-10-30T05:05:26.541Z,0.00
2022-10-30T05:06:26.572Z,0.00
2022-10-30T05:07:26.596Z,0.00
2022-10-30T05:08:26.626Z,0.00
2022-10-30T05:09:26.648Z,0.00
2022-10-30T05:10:26.678Z,0.00
2022-10-30T05:11:26.702Z,0.00
2022-10-30T05:12:26.732Z,0.00
2022-10-30T05:13:26.755Z,0.00
2022-10-30T05:14:26.784Z,0.00
2022-10-30T05:15:26.825Z,0.00
2022-10-30T05:16:26.838Z,0.00
2022-10-30T05:17:26.883Z,0.00
2022-10-30T05:18:26.891Z,0.00
2022-10-30T05:19:26.915Z,0.00
2022-10-30T05:20:27.114Z,0.00
2022-10-30T05:21:26.975Z,0.00
2022-10-30T05:22:26.999Z,0.00
2022-10-30T05:23:27.022Z,0.00
2022-10-30T05:24:27.050Z,0.00
2022-10-30T05:25:27.075Z,0.00
2022-10-30T05:26:27.105Z,0.00
2022-10-30T05:27:27.134Z,0.00
2022-10-30T05:28:27.157Z,0.00
2022-10-30T05:29:27.180Z,0.00
2022-10-30T05:30:27.210Z,0.00
2022-10-30T05:31:27.245Z,0.00
2022-10-30T05:32:27.262Z,0.00
2022-10-30T05:33:27.289Z,0.00
2022-10-30T05:34:27.318Z,0.00
2022-10-30T05:35:27.341Z,0.00
2022-10-30T05:36:27.388Z,0.00
2022-10-30T05:37:27.394Z,0.00
2022-10-30T05:38:27.422Z,0.00
2022-10-30T05:39:27.450Z,0.00
2022-10-30T05:40:27.475Z,0.00
2022-10-30T05:41:27.500Z,0.00
2022-10-30T05:42:27.527Z,0.00
2022-10-30T05:43:27.555Z,0.00
2022-10-30T05:44:40.746Z,0.00
2022-10-30T05:45:27.605Z,0.00
2022-10-30T05:46:27.633Z,0.00
2022-10-30T05:47:27.660Z,0.00
2022-10-30T05:48:27.687Z,0.00
2022-10-30T05:49:27.713Z,0.00
2022-10-30T05:50:27.742Z,0.00
2022-10-30T05:51:27.767Z,0.00
2022-10-30T05:52:27.812Z,0.00
2022-10-30T05:53:27.826Z,0.00
2022-10-30T05:54:27.847Z,0.00
2022-10-30T05:55:27.886Z,0.00
2022-10-30T05:56:27.917Z,0.00
2022-10-30T05:57:27.923Z,0.00
2022-10-30T05:58:27.952Z,0.00
2022-10-30T05:59:27.980Z,0.00
2022-10-30T06:00:28.007Z,0.00
2022-10-30T06:01:28.168Z,0.00
2022-10-30T06:02:28.121Z,0.00
2022-10-30T06:03:28.083Z,0.00
2022-10-30T06:04:28.114Z,0.00
2022-10-30T06:05:28.135Z,0.00
2022-10-30T06:06:28.165Z,0.00
2022-10-30T06:07:28.196Z,0.00
2022-10-30T06:08:28.243Z,0.00
2022-10-30T06:09:28.241Z,0.00
2022-10-30T06:10:28.273Z,0.00
2022-10-30T06:11:28.295Z,0.00
2022-10-30T06:12:28.322Z,0.00
2022-10-30T06:13:28.347Z,0.00
2022-10-30T06:14:28.377Z,0.00
2022-10-30T06:15:28.401Z,0.00
2022-10-30T06:16:28.464Z,0.00
2022-10-30T06:17:28.454Z,0.00
2022-10-30T06:18:28.494Z,0.00
2022-10-30T06:19:28.514Z,5.63
2022-10-30T06:20:28.554Z,5.63
2022-10-30T06:21:28.591Z,5.63
2022-10-30T06:22:28.601Z,5.63
2022-10-30T06:23:28.622Z,5.63
2022-10-30T06:24:28.677Z,5.63
2022-10-30T06:25:28.687Z,5.63
2022-10-30T06:26:28.709Z,5.63
2022-10-30T06:27:28.739Z,5.63
2022-10-30T06:28:28.749Z,11.25
2022-10-30T06:29:28.770Z,11.25
2022-10-30T06:30:28.800Z,11.25
2022-10-30T06:31:28.828Z,11.25
2022-10-30T06:32:28.854Z,11.25
2022-10-30T06:33:28.881Z,11.25
2022-10-30T06:34:28.912Z,16.88
2022-10-30T06:35:28.935Z,16.88
2022-10-30T06:36:28.960Z,16.88
2022-10-30T06:37:28.986Z,22.50
2022-10-30T06:38:29.013Z,22.50
2022-10-30T06:39:29.041Z,22.50
2022-10-30T06:40:29.085Z,22.50
2022-10-30T06:41:30.415Z,22.50
2022-10-30T06:42:29.118Z,22.50
2022-10-30T06:43:29.143Z,22.50
2022-10-30T06:44:29.172Z,28.13
2022-10-30T06:45:29.197Z,28.13
2022-10-30T06:46:33.472Z,28.13
2022-10-30T06:47:29.249Z,28.13
2022-10-30T06:48:29.278Z,28.13
2022-10-30T06:49:29.303Z,28.13
2022-10-30T06:50:29.334Z,28.13
2022-10-30T06:51:29.356Z,33.75
2022-10-30T06:52:29.384Z,33.75
2022-10-30T06:53:29.408Z,33.75
2022-10-30T06:54:29.442Z,33.75
2022-10-30T06:55:29.462Z,39.38
2022-10-30T06:57:29.534Z,39.38
2022-10-30T06:58:29.538Z,39.38
2022-10-30T06:59:29.567Z,45.00
2022-10-30T07:00:29.672Z,45.00
2022-10-30T07:01:29.701Z,45.00
2022-10-30T07:02:29.751Z,45.00
2022-10-30T07:03:29.674Z,50.63
2022-10-30T07:04:29.698Z,50.63
2022-10-30T07:05:29.726Z,50.63
2022-10-30T07:06:29.752Z,56.25
2022-10-30T07:07:29.784Z,61.88
2022-10-30T07:08:29.806Z,61.88
2022-10-30T07:09:29.836Z,61.88
2022-10-30T07:10:29.994Z,67.50
2022-10-30T07:11:29.890Z,67.50
2022-10-30T07:12:29.916Z,67.50
2022-10-30T07:13:30.171Z,67.50
2022-10-30T07:14:29.976Z,73.13
2022-10-30T07:15:30.114Z,73.13
2022-10-30T07:16:30.223Z,73.13
2022-10-30T07:17:30.048Z,73.13
2022-10-30T07:18:30.081Z,73.13
2022-10-30T07:20:30.341Z,73.13
2022-10-30T07:21:30.155Z,73.13
2022-10-30T07:22:30.184Z,73.13
2022-10-30T07:23:30.209Z,73.13
2022-10-30T07:26:04.369Z,73.13
2022-10-30T07:27:30.319Z,78.75
2022-10-30T07:28:30.349Z,78.75
2022-10-30T07:29:30.389Z,78.75
2022-10-30T07:30:30.400Z,78.75
2022-10-30T07:31:41.876Z,78.75
2022-10-30T07:32:30.452Z,78.75
2022-10-30T07:33:30.479Z,78.75
2022-10-30T07:34:30.506Z,78.75
2022-10-30T07:35:30.534Z,78.75
2022-10-30T07:36:30.563Z,78.75
2022-10-30T07:37:30.588Z,78.75
2022-10-30T07:38:30.617Z,78.75
2022-10-30T07:39:30.647Z,78.75
2022-10-30T07:40:30.672Z,78.75
2022-10-30T07:41:30.698Z,78.75
2022-10-30T07:42:30.725Z,78.75
2022-10-30T07:43:30.753Z,84.38
2022-10-30T07:45:30.826Z,78.75
2022-10-30T07:46:30.838Z,78.75
2022-10-30T07:47:31.063Z,78.75
2022-10-30T07:48:30.903Z,84.38
2022-10-30T07:50:31.156Z,84.38
2022-10-30T07:51:30.974Z,84.38
2022-10-30T07:52:30.998Z,84.38
2022-10-30T07:53:31.231Z,84.38
2022-10-30T07:54:31.054Z,84.38
2022-10-30T07:55:31.083Z,84.38
2022-10-30T07:56:31.110Z,84.38
2022-10-30T07:57:31.140Z,84.38
2022-10-30T07:58:31.167Z,84.38
2022-10-30T07:59:31.195Z,90.00
2022-10-30T08:00:31.219Z,90.00
2022-10-30T08:01:31.408Z,90.00
2022-10-30T08:02:31.449Z,90.00
2022-10-30T08:03:31.302Z,90.00
2022-10-30T08:04:31.330Z,90.00
2022-10-30T08:05:31.359Z,90.00
2022-10-30T08:06:31.385Z,90.00
2022-10-30T08:07:31.411Z,90.00
2022-10-30T08:08:31.442Z,95.63
2022-10-30T08:09:31.467Z,90.00
2022-10-30T08:10:31.497Z,90.00
2022-10-30T08:11:31.521Z,95.63
2022-10-30T08:12:31.552Z,95.63
2022-10-30T08:13:31.579Z,95.63
2022-10-30T08:14:31.606Z,90.00
2022-10-30T08:15:31.632Z,95.63
2022-10-30T08:16:31.661Z,95.63
2022-10-30T08:17:31.705Z,101.25
2022-10-30T08:18:31.716Z,101.25
2022-10-30T08:19:31.742Z,101.25
2022-10-30T08:20:31.776Z,106.88
2022-10-30T08:21:31.799Z,106.88
2022-10-30T08:22:31.827Z,106.88
2022-10-30T08:23:31.853Z,106.88
2022-10-30T08:24:31.882Z,106.88
2022-10-30T08:25:31.921Z,106.88
2022-10-30T08:26:31.937Z,106.88
2022-10-30T08:27:31.964Z,106.88
2022-10-30T08:28:33.101Z,112.50
2022-10-30T08:29:32.021Z,106.88
2022-10-30T08:30:32.052Z,106.88
2022-10-30T08:31:32.077Z,106.88
2022-10-30T08:32:32.105Z,106.88
2022-10-30T08:33:32.151Z,106.88
2022-10-30T08:34:32.163Z,101.25
2022-10-30T08:35:32.217Z,101.25
2022-10-30T08:36:32.219Z,101.25
2022-10-30T08:37:32.245Z,101.25
2022-10-30T08:38:32.276Z,101.25
2022-10-30T08:39:32.303Z,101.25
2022-10-30T08:40:32.331Z,101.25
2022-10-30T08:41:32.357Z,101.25
2022-10-30T08:42:32.387Z,95.63
2022-10-30T08:43:32.417Z,95.63
2022-10-30T08:44:32.444Z,95.63
2022-10-30T08:45:32.470Z,95.63
2022-10-30T08:46:32.502Z,95.63
2022-10-30T08:47:32.530Z,90.00
2022-10-30T08:48:32.557Z,90.00
2022-10-30T08:49:32.603Z,90.00
2022-10-30T08:50:32.614Z,90.00
2022-10-30T08:51:32.641Z,90.00
2022-10-30T08:52:32.672Z,90.00
2022-10-30T08:53:32.705Z,90.00
2022-10-30T08:54:32.729Z,90.00
2022-10-30T08:55:32.759Z,90.00
2022-10-30T08:56:32.789Z,90.00
2022-10-30T08:57:32.813Z,90.00
2022-10-30T08:58:32.844Z,90.00
2022-10-30T08:59:32.886Z,90.00
2022-10-30T09:00:32.906Z,90.00
2022-10-30T09:01:33.157Z,95.63
2022-10-30T09:02:33.147Z,95.63
2022-10-30T09:03:32.987Z,95.63
2022-10-30T09:04:33.017Z,95.63
2022-10-30T09:05:33.063Z,95.63
2022-10-30T09:06:33.079Z,90.00
2022-10-30T09:07:33.104Z,95.63
2022-10-30T09:08:33.133Z,90.00
2022-10-30T09:09:33.160Z,90.00
2022-10-30T09:10:33.191Z,90.00
2022-10-30T09:11:33.219Z,90.00
2022-10-30T09:12:33.248Z,95.63
2022-10-30T09:13:33.274Z,95.63
2022-10-30T09:14:33.304Z,95.63
2022-10-30T09:15:33.330Z,95.63
2022-10-30T09:16:33.363Z,95.63
2022-10-30T09:17:33.390Z,95.63
2022-10-30T09:18:33.420Z,101.25
2022-10-30T09:19:33.453Z,95.63
2022-10-30T09:20:33.477Z,101.25
2022-10-30T09:21:33.522Z,95.63
2022-10-30T09:22:33.536Z,95.63
2022-10-30T09:23:33.562Z,95.63
2022-10-30T09:24:33.590Z,95.63
2022-10-30T09:25:33.618Z,95.63
2022-10-30T09:26:33.650Z,95.63
2022-10-30T09:27:33.678Z,101.25
2022-10-30T09:28:33.708Z,101.25
2022-10-30T09:29:33.735Z,101.25
2022-10-30T09:30:33.767Z,106.88
2022-10-30T09:31:33.796Z,106.88
2022-10-30T09:32:33.825Z,106.88
2022-10-30T09:33:33.849Z,106.88
2022-10-30T09:34:33.890Z,101.25
2022-10-30T09:35:33.909Z,106.88
2022-10-30T09:36:33.940Z,106.88
2022-10-30T09:37:33.984Z,106.88
2022-10-30T09:38:33.995Z,101.25
2022-10-30T09:39:34.026Z,101.25
2022-10-30T09:40:34.053Z,106.88
2022-10-30T09:41:34.081Z,106.88
2022-10-30T09:42:34.111Z,106.88
2022-10-30T09:43:34.138Z,106.88
2022-10-30T09:44:34.172Z,106.88
2022-10-30T09:45:34.194Z,106.88
2022-10-30T09:46:34.227Z,106.88
2022-10-30T09:47:34.256Z,106.88
2022-10-30T09:48:34.290Z,106.88
2022-10-30T09:49:34.312Z,106.88
2022-10-30T09:50:37.242Z,106.88
2022-10-30T09:51:34.372Z,106.88
2022-10-30T09:52:34.400Z,106.88
2022-10-30T09:53:34.445Z,106.88
2022-10-30T09:54:34.457Z,106.88
2022-10-30T09:55:34.492Z,106.88
2022-10-30T09:56:34.519Z,106.88
2022-10-30T09:57:34.542Z,106.88
2022-10-30T09:58:34.574Z,106.88
2022-10-30T09:59:34.601Z,106.88
2022-10-30T10:00:34.633Z,106.88
2022-10-30T10:02:34.940Z,106.88
2022-10-30T10:03:34.719Z,106.88
2022-10-30T10:04:34.749Z,106.88
2022-10-30T10:05:34.783Z,106.88
2022-10-30T10:06:34.807Z,106.88
2022-10-30T10:07:34.838Z,106.88
2022-10-30T10:08:34.867Z,106.88
2022-10-30T10:09:35.039Z,106.88
2022-10-30T10:10:34.922Z,106.88
2022-10-30T10:11:34.955Z,106.88
2022-10-30T10:12:34.985Z,106.88
2022-10-30T10:13:35.014Z,106.88
2022-10-30T10:14:35.045Z,106.88
2022-10-30T10:15:35.073Z,106.88
2022-10-30T10:16:35.104Z,106.88
2022-10-30T10:17:35.136Z,106.88
2022-10-30T10:18:35.176Z,106.88
2022-10-30T10:19:35.191Z,106.88
2022-10-30T10:20:35.221Z,106.88
2022-10-30T10:21:35.251Z,106.88
2022-10-30T10:22:35.277Z,101.25
2022-10-30T10:23:35.310Z,106.88
2022-10-30T10:24:35.338Z,101.25
2022-10-30T10:25:35.386Z,101.25
2022-10-30T10:26:35.396Z,101.25
2022-10-30T10:27:35.427Z,101.25
2022-10-30T10:28:36.802Z,106.88
2022-10-30T10:29:35.487Z,106.88
2022-10-30T10:30:35.516Z,106.88
2022-10-30T10:31:35.547Z,106.88
2022-10-30T10:32:35.574Z,106.88
2022-10-30T10:33:35.606Z,106.88
2022-10-30T10:34:35.646Z,106.88
2022-10-30T10:35:35.665Z,106.88
2022-10-30T10:36:35.696Z,106.88
2022-10-30T10:37:35.723Z,112.50
2022-10-30T10:38:35.754Z,112.50
2022-10-30T10:39:35.786Z,112.50
2022-10-30T10:40:35.813Z,118.13
2022-10-30T10:41:35.861Z,112.50
2022-10-30T10:42:35.874Z,112.50
2022-10-30T10:43:35.904Z,112.50
2022-10-30T10:44:35.934Z,112.50
2022-10-30T10:45:35.963Z,112.50
2022-10-30T10:46:35.993Z,112.50
2022-10-30T10:47:36.027Z,118.13
2022-10-30T10:48:36.053Z,112.50
2022-10-30T10:49:39.215Z,118.13
2022-10-30T10:50:36.113Z,112.50
2022-10-30T10:51:36.146Z,118.13
2022-10-30T10:52:36.174Z,118.13
2022-10-30T10:53:36.203Z,112.50
2022-10-30T10:54:36.232Z,118.13
2022-10-30T10:55:36.298Z,112.50
2022-10-30T10:56:36.295Z,112.50
2022-10-30T10:57:36.343Z,112.50
2022-10-30T10:58:36.354Z,112.50
2022-10-30T10:59:36.385Z,112.50
2022-10-30T11:00:36.412Z,112.50
2022-10-30T11:01:36.568Z,112.50
2022-10-30T11:02:36.605Z,118.13
2022-10-30T11:03:36.505Z,118.13
2022-10-30T11:04:36.533Z,112.50
2022-10-30T11:05:36.564Z,112.50
2022-10-30T11:06:36.594Z,118.13
2022-10-30T11:07:36.626Z,112.50
2022-10-30T11:08:36.655Z,112.50
2022-10-30T11:09:36.686Z,118.13
2022-10-30T11:10:36.712Z,118.13
2022-10-30T11:11:36.748Z,118.13
2022-10-30T11:12:36.802Z,123.75
2022-10-30T11:13:36.824Z,118.13
2022-10-30T11:14:36.836Z,118.13
2022-10-30T11:15:36.866Z,118.13
2022-10-30T11:16:36.900Z,118.13
2022-10-30T11:17:39.549Z,118.13
2022-10-30T11:18:36.955Z,118.13
2022-10-30T11:19:36.987Z,118.13
2022-10-30T11:20:37.019Z,118.13
2022-10-30T11:21:37.051Z,118.13
2022-10-30T11:22:37.078Z,118.13
2022-10-30T11:23:37.115Z,118.13
2022-10-30T11:24:37.139Z,118.13
2022-10-30T11:25:37.174Z,118.13
2022-10-30T11:26:37.199Z,118.13
2022-10-30T11:27:37.231Z,118.13
2022-10-30T11:28:37.260Z,118.13
2022-10-30T11:29:37.309Z,118.13
2022-10-30T11:30:37.323Z,118.13
2022-10-30T11:31:37.354Z,118.13
2022-10-30T11:32:37.438Z,118.13
2022-10-30T11:33:37.414Z,118.13
2022-10-30T11:34:37.446Z,118.13
2022-10-30T11:35:37.477Z,123.75
2022-10-30T11:36:37.506Z,118.13
2022-10-30T11:37:37.537Z,123.75
2022-10-30T11:38:37.567Z,123.75
2022-10-30T11:39:37.601Z,123.75
2022-10-30T11:40:37.629Z,118.13
2022-10-30T11:41:37.678Z,118.13
2022-10-30T11:42:37.690Z,118.13
2022-10-30T11:43:37.722Z,118.13
2022-10-30T11:44:37.771Z,118.13
2022-10-30T11:45:37.804Z,118.13
2022-10-30T11:46:37.813Z,118.13
2022-10-30T11:47:37.851Z,118.13
2022-10-30T11:48:37.874Z,123.75
2022-10-30T11:49:37.906Z,123.75
2022-10-30T11:50:37.936Z,123.75
2022-10-30T11:51:38.053Z,123.75
2022-10-30T11:52:37.999Z,123.75
2022-10-30T11:53:38.028Z,123.75
2022-10-30T11:54:38.059Z,118.13
2022-10-30T11:55:38.091Z,118.13
2022-10-30T11:56:38.121Z,118.13
2022-10-30T11:57:38.155Z,118.13
2022-10-30T11:58:38.183Z,118.13
2022-10-30T11:59:38.216Z,118.13
2022-10-30T12:00:38.245Z,118.13
2022-10-30T12:01:38.353Z,118.13
2022-10-30T12:03:38.341Z,118.13
2022-10-30T12:04:38.368Z,112.50
2022-10-30T12:05:38.402Z,118.13
2022-10-30T12:06:38.431Z,112.50
2022-10-30T12:07:38.466Z,112.50
2022-10-30T12:08:38.497Z,112.50
2022-10-30T12:09:38.574Z,112.50
2022-10-30T12:10:38.555Z,112.50
2022-10-30T12:11:38.588Z,106.88
2022-10-30T12:12:38.637Z,112.50
2022-10-30T12:13:38.653Z,106.88
2022-10-30T12:14:38.679Z,112.50
2022-10-30T12:15:38.712Z,112.50
2022-10-30T12:16:38.741Z,112.50
2022-10-30T12:17:38.791Z,112.50
2022-10-30T12:18:38.802Z,112.50
2022-10-30T12:19:38.834Z,112.50
2022-10-30T12:20:38.862Z,112.50
2022-10-30T12:21:38.895Z,112.50
2022-10-30T12:22:38.926Z,112.50
2022-10-30T12:23:38.959Z,118.13
2022-10-30T12:24:38.989Z,118.13
2022-10-30T12:25:39.019Z,118.13
2022-10-30T12:26:39.052Z,118.13
2022-10-30T12:27:39.082Z,118.13
2022-10-30T12:28:39.114Z,118.13
2022-10-30T12:30:06.813Z,118.13
2022-10-30T12:30:39.176Z,118.13
2022-10-30T12:31:39.205Z,118.13
2022-10-30T12:32:39.679Z,118.13
2022-10-30T12:33:39.285Z,123.75
2022-10-30T12:34:39.300Z,123.75
2022-10-30T12:35:39.329Z,123.75
2022-10-30T12:36:39.363Z,123.75
2022-10-30T12:37:39.392Z,123.75
2022-10-30T12:38:39.425Z,123.75
2022-10-30T12:39:39.457Z,123.75
2022-10-30T12:40:39.487Z,123.75
2022-10-30T12:41:39.515Z,118.13
2022-10-30T12:42:39.548Z,118.13
2022-10-30T12:43:39.578Z,118.13
2022-10-30T12:44:39.613Z,118.13
2022-10-30T12:45:39.642Z,118.13
2022-10-30T12:46:39.677Z,118.13
2022-10-30T12:47:39.708Z,118.13
2022-10-30T12:48:39.739Z,118.13
2022-10-30T12:49:39.785Z,118.13
2022-10-30T12:50:39.801Z,118.13
2022-10-30T12:51:39.832Z,118.13
2022-10-30T12:52:39.866Z,123.75
2022-10-30T12:53:39.892Z,123.75
2022-10-30T12:54:39.923Z,123.75
2022-10-30T12:55:39.956Z,129.38
2022-10-30T12:56:39.988Z,129.38
2022-10-30T12:57:40.017Z,135.00
2022-10-30T12:58:40.053Z,135.00
2022-10-30T12:59:40.079Z,135.00
2022-10-30T13:00:40.113Z,135.00
2022-10-30T13:01:40.286Z,135.00
2022-10-30T13:02:40.174Z,135.00
2022-10-30T13:03:40.205Z,135.00
2022-10-30T13:04:40.240Z,135.00
2022-10-30T13:05:40.391Z,135.00
2022-10-30T13:06:40.300Z,129.38
2022-10-30T13:07:40.330Z,129.38